sensor_id;sensor_type;location;lat;lon;timestamp;temperature;humidity
20035;DHT22;10178;48.034;9.800;2022-10-16T00:01:08;15.20;99.90
20035;DHT22;10178;48.034;9.800;2022-10-16T00:03:34;15.20;99.90
20035;DHT22;10178;48.034;9.800;2022-10-16T00:06:01;14.60;99.90
20035;DHT22;10178;48.034;9.800;2022-10-16T00:08:27;14.70;99.90
20035;DHT22;10178;48.034;9.800;2022-10-16T00:10:59;15.00;99.90
20035;DHT22;10178;48.034;9.800;2022-10-16T00:13:25;15.20;99.90
20035;DHT22;10178;48.034;9.800;2022-10-16T00:15:55;15.40;99.90
20035;DHT22;10178;48.034;9.800;2022-10-16T00:18:21;15.30;99.90
20035;DHT22;10178;48.034;9.800;2022-10-16T00:20:47;15.40;99.90
20035;DHT22;10178;48.034;9.800;2022-10-16T00:23:13;15.50;99.90
20035;DHT22;10178;48.034;9.800;2022-10-16T00:25:39;15.60;99.90
20035;DHT22;10178;48.034;9.800;2022-10-16T00:28:05;15.60;99.90
20035;DHT22;10178;48.034;9.800;2022-10-16T00:30:31;15.70;99.90
20035;DHT22;10178;48.034;9.800;2022-10-16T00:32:57;15.40;99.90
20035;DHT22;10178;48.034;9.800;2022-10-16T00:35:22;14.80;99.90
20035;DHT22;10178;48.034;9.800;2022-10-16T00:37:48;14.30;99.90
20035;DHT22;10178;48.034;9.800;2022-10-16T00:40:14;13.60;99.90
20035;DHT22;10178;48.034;9.800;2022-10-16T00:42:40;13.20;99.90
20035;DHT22;10178;48.034;9.800;2022-10-16T00:45:06;12.80;99.90
20035;DHT22;10178;48.034;9.800;2022-10-16T00:47:40;12.80;99.90
20035;DHT22;10178;48.034;9.800;2022-10-16T00:52:37;12.70;99.90
20035;DHT22;10178;48.034;9.800;2022-10-16T00:55:06;13.00;99.90
20035;DHT22;10178;48.034;9.800;2022-10-16T00:57:32;13.50;99.90
20035;DHT22;10178;48.034;9.800;2022-10-16T00:59:57;13.60;99.90
20035;DHT22;10178;48.034;9.800;2022-10-16T01:02:24;13.50;99.90
20035;DHT22;10178;48.034;9.800;2022-10-16T01:04:52;13.20;99.90
20035;DHT22;10178;48.034;9.800;2022-10-16T01:20:54;13.10;99.90
20035;DHT22;10178;48.034;9.800;2022-10-16T01:34:53;12.70;99.90
20035;DHT22;10178;48.034;9.800;2022-10-16T01:37:31;12.70;99.90
20035;DHT22;10178;48.034;9.800;2022-10-16T01:40:00;12.70;99.90
20035;DHT22;10178;48.034;9.800;2022-10-16T01:42:35;12.70;99.90
20035;DHT22;10178;48.034;9.800;2022-10-16T01:45:04;12.70;99.90
20035;DHT22;10178;48.034;9.800;2022-10-16T01:47:32;12.80;99.90
20035;DHT22;10178;48.034;9.800;2022-10-16T01:49:59;12.70;99.90
20035;DHT22;10178;48.034;9.800;2022-10-16T01:52:29;12.80;99.90
20035;DHT22;10178;48.034;9.800;2022-10-16T01:54:56;12.80;99.90
20035;DHT22;10178;48.034;9.800;2022-10-16T01:57:24;12.80;99.90
20035;DHT22;10178;48.034;9.800;2022-10-16T01:59:54;12.90;99.90
20035;DHT22;10178;48.034;9.800;2022-10-16T02:02:22;12.80;99.90
20035;DHT22;10178;48.034;9.800;2022-10-16T02:05:45;12.70;99.90
20035;DHT22;10178;48.034;9.800;2022-10-16T02:07:45;12.70;99.90
20035;DHT22;10178;48.034;9.800;2022-10-16T02:10:11;12.80;99.90
20035;DHT22;10178;48.034;9.800;2022-10-16T02:12:39;13.10;99.90
20035;DHT22;10178;48.034;9.800;2022-10-16T02:15:06;13.00;99.90
20035;DHT22;10178;48.034;9.800;2022-10-16T02:17:32;12.90;99.90
20035;DHT22;10178;48.034;9.800;2022-10-16T02:19:59;12.80;99.90
20035;DHT22;10178;48.034;9.800;2022-10-16T02:22:29;12.80;99.90
20035;DHT22;10178;48.034;9.800;2022-10-16T02:25:13;13.00;99.90
20035;DHT22;10178;48.034;9.800;2022-10-16T02:30:29;12.80;99.90
20035;DHT22;10178;48.034;9.800;2022-10-16T02:32:58;12.80;99.90
20035;DHT22;10178;48.034;9.800;2022-10-16T02:35:25;12.70;99.90
20035;DHT22;10178;48.034;9.800;2022-10-16T02:37:53;12.80;99.90
20035;DHT22;10178;48.034;9.800;2022-10-16T02:40:20;12.90;99.90
20035;DHT22;10178;48.034;9.800;2022-10-16T02:42:50;13.20;99.90
20035;DHT22;10178;48.034;9.800;2022-10-16T02:45:17;13.20;99.90
20035;DHT22;10178;48.034;9.800;2022-10-16T02:47:42;13.60;99.90
20035;DHT22;10178;48.034;9.800;2022-10-16T02:50:08;13.90;99.90
20035;DHT22;10178;48.034;9.800;2022-10-16T02:52:34;14.00;99.90
20035;DHT22;10178;48.034;9.800;2022-10-16T02:55:00;13.60;99.90
20035;DHT22;10178;48.034;9.800;2022-10-16T02:57:26;13.20;99.90
20035;DHT22;10178;48.034;9.800;2022-10-16T02:59:52;13.40;99.90
20035;DHT22;10178;48.034;9.800;2022-10-16T03:02:17;13.70;99.90
20035;DHT22;10178;48.034;9.800;2022-10-16T03:04:43;13.90;99.90
20035;DHT22;10178;48.034;9.800;2022-10-16T03:07:08;14.00;99.90
20035;DHT22;10178;48.034;9.800;2022-10-16T03:09:34;13.70;99.90
20035;DHT22;10178;48.034;9.800;2022-10-16T03:12:00;13.30;99.90
20035;DHT22;10178;48.034;9.800;2022-10-16T03:14:25;13.10;99.90
20035;DHT22;10178;48.034;9.800;2022-10-16T03:16:51;13.20;99.90
20035;DHT22;10178;48.034;9.800;2022-10-16T03:19:17;13.10;99.90
20035;DHT22;10178;48.034;9.800;2022-10-16T03:21:43;13.00;99.90
20035;DHT22;10178;48.034;9.800;2022-10-16T03:24:09;12.90;99.90
20035;DHT22;10178;48.034;9.800;2022-10-16T03:26:35;13.10;99.90
20035;DHT22;10178;48.034;9.800;2022-10-16T03:29:00;13.30;99.90
20035;DHT22;10178;48.034;9.800;2022-10-16T03:31:29;13.40;99.90
20035;DHT22;10178;48.034;9.800;2022-10-16T03:33:54;13.10;99.90
20035;DHT22;10178;48.034;9.800;2022-10-16T03:36:20;12.90;99.90
20035;DHT22;10178;48.034;9.800;2022-10-16T03:38:46;12.90;99.90
20035;DHT22;10178;48.034;9.800;2022-10-16T03:41:11;13.10;99.90
20035;DHT22;10178;48.034;9.800;2022-10-16T03:43:37;13.60;99.90
20035;DHT22;10178;48.034;9.800;2022-10-16T03:46:02;13.90;99.90
20035;DHT22;10178;48.034;9.800;2022-10-16T03:48:29;14.00;99.90
20035;DHT22;10178;48.034;9.800;2022-10-16T03:50:54;13.70;99.90
20035;DHT22;10178;48.034;9.800;2022-10-16T03:53:20;13.60;99.90
20035;DHT22;10178;48.034;9.800;2022-10-16T03:55:45;13.60;99.90
20035;DHT22;10178;48.034;9.800;2022-10-16T03:58:12;13.50;99.90
20035;DHT22;10178;48.034;9.800;2022-10-16T04:00:44;13.40;99.90
20035;DHT22;10178;48.034;9.800;2022-10-16T04:03:11;13.20;99.90
20035;DHT22;10178;48.034;9.800;2022-10-16T04:05:37;13.00;99.90
20035;DHT22;10178;48.034;9.800;2022-10-16T04:08:02;12.90;99.90
20035;DHT22;10178;48.034;9.800;2022-10-16T04:10:28;12.90;99.90
20035;DHT22;10178;48.034;9.800;2022-10-16T04:12:54;12.80;99.90
20035;DHT22;10178;48.034;9.800;2022-10-16T04:15:21;12.80;99.90
20035;DHT22;10178;48.034;9.800;2022-10-16T04:17:47;12.70;99.90
20035;DHT22;10178;48.034;9.800;2022-10-16T04:20:13;12.70;99.90
20035;DHT22;10178;48.034;9.800;2022-10-16T04:22:38;12.80;99.90
20035;DHT22;10178;48.034;9.800;2022-10-16T04:25:04;12.80;99.90
20035;DHT22;10178;48.034;9.800;2022-10-16T04:27:30;12.70;99.90
20035;DHT22;10178;48.034;9.800;2022-10-16T04:29:57;12.80;99.90
20035;DHT22;10178;48.034;9.800;2022-10-16T04:32:23;12.80;99.90
20035;DHT22;10178;48.034;9.800;2022-10-16T04:34:48;12.80;99.90
20035;DHT22;10178;48.034;9.800;2022-10-16T04:37:14;12.80;99.90
20035;DHT22;10178;48.034;9.800;2022-10-16T04:39:40;13.00;99.90
20035;DHT22;10178;48.034;9.800;2022-10-16T04:42:05;13.40;99.90
20035;DHT22;10178;48.034;9.800;2022-10-16T04:44:31;13.80;99.90
20035;DHT22;10178;48.034;9.800;2022-10-16T04:46:56;14.00;99.90
20035;DHT22;10178;48.034;9.800;2022-10-16T04:49:22;14.30;99.90
20035;DHT22;10178;48.034;9.800;2022-10-16T04:51:48;14.30;99.90
20035;DHT22;10178;48.034;9.800;2022-10-16T04:54:13;14.40;99.90
20035;DHT22;10178;48.034;9.800;2022-10-16T04:56:39;14.60;99.90
20035;DHT22;10178;48.034;9.800;2022-10-16T04:59:16;14.70;99.90
20035;DHT22;10178;48.034;9.800;2022-10-16T05:01:42;14.70;99.90
20035;DHT22;10178;48.034;9.800;2022-10-16T05:04:08;14.70;99.90
20035;DHT22;10178;48.034;9.800;2022-10-16T05:06:34;14.70;99.90
20035;DHT22;10178;48.034;9.800;2022-10-16T05:08:59;14.70;99.90
20035;DHT22;10178;48.034;9.800;2022-10-16T05:11:25;14.60;99.90
20035;DHT22;10178;48.034;9.800;2022-10-16T05:13:51;14.70;99.90
20035;DHT22;10178;48.034;9.800;2022-10-16T05:16:16;14.50;99.90
20035;DHT22;10178;48.034;9.800;2022-10-16T05:18:42;13.90;99.90
20035;DHT22;10178;48.034;9.800;2022-10-16T05:21:08;13.60;99.90
20035;DHT22;10178;48.034;9.800;2022-10-16T05:23:34;13.90;99.90
20035;DHT22;10178;48.034;9.800;2022-10-16T05:25:59;13.40;99.90
20035;DHT22;10178;48.034;9.800;2022-10-16T05:28:26;13.80;99.90
20035;DHT22;10178;48.034;9.800;2022-10-16T05:30:52;13.90;99.90
20035;DHT22;10178;48.034;9.800;2022-10-16T05:33:23;13.60;99.90
20035;DHT22;10178;48.034;9.800;2022-10-16T05:35:49;13.20;99.90
20035;DHT22;10178;48.034;9.800;2022-10-16T05:38:15;13.40;99.90
20035;DHT22;10178;48.034;9.800;2022-10-16T05:40:41;13.60;99.90
20035;DHT22;10178;48.034;9.800;2022-10-16T05:43:07;13.90;99.90
20035;DHT22;10178;48.034;9.800;2022-10-16T05:45:32;14.00;99.90
20035;DHT22;10178;48.034;9.800;2022-10-16T05:47:59;13.90;99.90
20035;DHT22;10178;48.034;9.800;2022-10-16T05:50:25;14.00;99.90
20035;DHT22;10178;48.034;9.800;2022-10-16T05:52:50;14.20;99.90
20035;DHT22;10178;48.034;9.800;2022-10-16T05:55:16;14.40;99.90
20035;DHT22;10178;48.034;9.800;2022-10-16T05:57:41;14.40;99.90
20035;DHT22;10178;48.034;9.800;2022-10-16T06:00:07;14.50;99.90
20035;DHT22;10178;48.034;9.800;2022-10-16T06:02:33;14.60;99.90
20035;DHT22;10178;48.034;9.800;2022-10-16T06:04:59;14.40;99.90
20035;DHT22;10178;48.034;9.800;2022-10-16T06:07:24;14.20;99.90
20035;DHT22;10178;48.034;9.800;2022-10-16T06:09:53;13.60;99.90
20035;DHT22;10178;48.034;9.800;2022-10-16T06:12:19;13.90;99.90
20035;DHT22;10178;48.034;9.800;2022-10-16T06:14:46;14.10;99.90
20035;DHT22;10178;48.034;9.800;2022-10-16T06:17:15;14.30;99.90
20035;DHT22;10178;48.034;9.800;2022-10-16T06:19:40;14.10;99.90
20035;DHT22;10178;48.034;9.800;2022-10-16T06:22:06;13.80;99.90
20035;DHT22;10178;48.034;9.800;2022-10-16T06:24:32;13.70;99.90
20035;DHT22;10178;48.034;9.800;2022-10-16T06:26:57;13.60;99.90
20035;DHT22;10178;48.034;9.800;2022-10-16T06:29:23;13.30;99.90
20035;DHT22;10178;48.034;9.800;2022-10-16T06:31:48;13.30;99.90
20035;DHT22;10178;48.034;9.800;2022-10-16T06:34:14;13.00;99.90
20035;DHT22;10178;48.034;9.800;2022-10-16T06:36:40;12.90;99.90
20035;DHT22;10178;48.034;9.800;2022-10-16T06:39:06;12.80;99.90
20035;DHT22;10178;48.034;9.800;2022-10-16T06:41:33;12.80;99.90
20035;DHT22;10178;48.034;9.800;2022-10-16T06:43:59;13.10;99.90
20035;DHT22;10178;48.034;9.800;2022-10-16T06:46:26;13.10;99.90
20035;DHT22;10178;48.034;9.800;2022-10-16T06:48:52;13.00;99.90
20035;DHT22;10178;48.034;9.800;2022-10-16T06:51:20;13.00;99.90
20035;DHT22;10178;48.034;9.800;2022-10-16T06:53:49;13.10;99.90
20035;DHT22;10178;48.034;9.800;2022-10-16T06:56:21;13.10;99.90
20035;DHT22;10178;48.034;9.800;2022-10-16T06:58:48;13.10;99.90
20035;DHT22;10178;48.034;9.800;2022-10-16T07:01:15;13.00;99.90
20035;DHT22;10178;48.034;9.800;2022-10-16T07:03:43;13.10;99.90
20035;DHT22;10178;48.034;9.800;2022-10-16T07:06:10;13.20;99.90
20035;DHT22;10178;48.034;9.800;2022-10-16T07:08:38;13.30;99.90
20035;DHT22;10178;48.034;9.800;2022-10-16T07:11:07;13.40;99.90
20035;DHT22;10178;48.034;9.800;2022-10-16T07:13:37;13.30;99.90
20035;DHT22;10178;48.034;9.800;2022-10-16T07:16:13;13.30;99.90
20035;DHT22;10178;48.034;9.800;2022-10-16T07:18:40;13.40;99.90
20035;DHT22;10178;48.034;9.800;2022-10-16T07:21:17;13.50;99.90
20035;DHT22;10178;48.034;9.800;2022-10-16T07:23:44;13.50;99.90
20035;DHT22;10178;48.034;9.800;2022-10-16T07:26:10;13.60;99.90
20035;DHT22;10178;48.034;9.800;2022-10-16T07:28:37;13.60;99.90
20035;DHT22;10178;48.034;9.800;2022-10-16T07:31:05;13.60;99.90
20035;DHT22;10178;48.034;9.800;2022-10-16T07:33:32;13.70;99.90
20035;DHT22;10178;48.034;9.800;2022-10-16T07:35:58;13.90;99.90
20035;DHT22;10178;48.034;9.800;2022-10-16T07:38:24;14.20;99.90
20035;DHT22;10178;48.034;9.800;2022-10-16T07:41:00;14.40;99.90
20035;DHT22;10178;48.034;9.800;2022-10-16T07:43:27;14.60;99.90
20035;DHT22;10178;48.034;9.800;2022-10-16T07:45:53;15.00;99.90
20035;DHT22;10178;48.034;9.800;2022-10-16T07:48:19;15.60;99.90
20035;DHT22;10178;48.034;9.800;2022-10-16T07:50:45;16.00;99.90
20035;DHT22;10178;48.034;9.800;2022-10-16T07:53:12;16.50;99.90
20035;DHT22;10178;48.034;9.800;2022-10-16T07:55:44;17.00;99.90
20035;DHT22;10178;48.034;9.800;2022-10-16T07:58:09;17.20;99.90
20035;DHT22;10178;48.034;9.800;2022-10-16T08:00:36;17.20;99.90
20035;DHT22;10178;48.034;9.800;2022-10-16T08:03:03;17.30;99.90
20035;DHT22;10178;48.034;9.800;2022-10-16T08:05:30;17.30;99.90
20035;DHT22;10178;48.034;9.800;2022-10-16T08:07:57;17.30;99.90
20035;DHT22;10178;48.034;9.800;2022-10-16T08:10:25;17.20;99.90
20035;DHT22;10178;48.034;9.800;2022-10-16T08:12:51;17.20;99.90
20035;DHT22;10178;48.034;9.800;2022-10-16T08:15:17;17.10;99.90
20035;DHT22;10178;48.034;9.800;2022-10-16T08:17:43;17.10;99.90
20035;DHT22;10178;48.034;9.800;2022-10-16T08:20:09;16.90;99.90
20035;DHT22;10178;48.034;9.800;2022-10-16T08:22:35;16.90;99.90
20035;DHT22;10178;48.034;9.800;2022-10-16T08:25:01;16.90;99.90
20035;DHT22;10178;48.034;9.800;2022-10-16T08:27:31;16.90;99.90
20035;DHT22;10178;48.034;9.800;2022-10-16T08:29:57;16.90;99.90
20035;DHT22;10178;48.034;9.800;2022-10-16T08:32:23;16.90;99.90
20035;DHT22;10178;48.034;9.800;2022-10-16T08:34:48;16.90;99.90
20035;DHT22;10178;48.034;9.800;2022-10-16T08:37:14;16.90;99.90
20035;DHT22;10178;48.034;9.800;2022-10-16T08:39:40;16.90;99.90
20035;DHT22;10178;48.034;9.800;2022-10-16T08:50:39;17.00;99.90
20035;DHT22;10178;48.034;9.800;2022-10-16T08:53:06;17.00;99.90
20035;DHT22;10178;48.034;9.800;2022-10-16T08:55:42;17.00;99.90
20035;DHT22;10178;48.034;9.800;2022-10-16T08:58:18;16.90;99.90
20035;DHT22;10178;48.034;9.800;2022-10-16T09:00:53;17.00;99.90
20035;DHT22;10178;48.034;9.800;2022-10-16T09:09:41;17.10;99.90
20035;DHT22;10178;48.034;9.800;2022-10-16T09:12:31;17.00;99.90
20035;DHT22;10178;48.034;9.800;2022-10-16T09:15:23;16.90;99.90
20035;DHT22;10178;48.034;9.800;2022-10-16T09:18:10;16.90;99.90
20035;DHT22;10178;48.034;9.800;2022-10-16T09:21:05;16.80;99.90
20035;DHT22;10178;48.034;9.800;2022-10-16T09:23:35;16.70;99.90
20035;DHT22;10178;48.034;9.800;2022-10-16T09:26:03;16.70;99.90
20035;DHT22;10178;48.034;9.800;2022-10-16T09:28:30;16.70;99.90
20035;DHT22;10178;48.034;9.800;2022-10-16T09:30:56;16.70;99.90
20035;DHT22;10178;48.034;9.800;2022-10-16T09:33:25;16.70;99.90
20035;DHT22;10178;48.034;9.800;2022-10-16T09:35:56;16.80;99.90
20035;DHT22;10178;48.034;9.800;2022-10-16T09:38:29;16.90;99.90
20035;DHT22;10178;48.034;9.800;2022-10-16T09:40:56;17.00;99.90
20035;DHT22;10178;48.034;9.800;2022-10-16T09:43:42;17.20;99.90
20035;DHT22;10178;48.034;9.800;2022-10-16T09:48:50;17.20;99.90
20035;DHT22;10178;48.034;9.800;2022-10-16T09:51:36;17.30;99.90
20035;DHT22;10178;48.034;9.800;2022-10-16T09:56:35;17.80;99.90
20035;DHT22;10178;48.034;9.800;2022-10-16T09:59:13;17.90;99.90
20035;DHT22;10178;48.034;9.800;2022-10-16T10:01:46;17.90;99.90
20035;DHT22;10178;48.034;9.800;2022-10-16T10:04:13;17.80;99.90
20035;DHT22;10178;48.034;9.800;2022-10-16T10:06:45;17.70;99.90
20035;DHT22;10178;48.034;9.800;2022-10-16T10:12:03;18.00;99.90
20035;DHT22;10178;48.034;9.800;2022-10-16T10:14:39;18.30;99.90
20035;DHT22;10178;48.034;9.800;2022-10-16T10:17:20;18.60;99.90
20035;DHT22;10178;48.034;9.800;2022-10-16T10:19:47;19.10;99.90
20035;DHT22;10178;48.034;9.800;2022-10-16T10:28:08;20.40;99.90
20035;DHT22;10178;48.034;9.800;2022-10-16T10:33:04;20.60;99.90
20035;DHT22;10178;48.034;9.800;2022-10-16T10:38:31;20.60;99.90
20035;DHT22;10178;48.034;9.800;2022-10-16T10:46:42;20.30;99.90
20035;DHT22;10178;48.034;9.800;2022-10-16T10:49:19;20.30;99.90
20035;DHT22;10178;48.034;9.800;2022-10-16T10:54:59;20.30;99.90
20035;DHT22;10178;48.034;9.800;2022-10-16T11:06:06;21.10;99.90
20035;DHT22;10178;48.034;9.800;2022-10-16T11:11:42;21.00;99.90
20035;DHT22;10178;48.034;9.800;2022-10-16T11:14:22;21.10;99.90
20035;DHT22;10178;48.034;9.800;2022-10-16T11:25:16;20.60;99.90
20035;DHT22;10178;48.034;9.800;2022-10-16T11:30:26;20.30;99.90
20035;DHT22;10178;48.034;9.800;2022-10-16T11:33:10;20.60;99.90
20035;DHT22;10178;48.034;9.800;2022-10-16T11:38:49;20.80;99.90
20035;DHT22;10178;48.034;9.800;2022-10-16T11:47:06;20.70;99.90
20035;DHT22;10178;48.034;9.800;2022-10-16T11:49:36;20.60;99.90
20035;DHT22;10178;48.034;9.800;2022-10-16T11:52:07;20.70;99.90
20035;DHT22;10178;48.034;9.800;2022-10-16T11:57:21;21.00;99.90
20035;DHT22;10178;48.034;9.800;2022-10-16T11:59:56;21.20;99.90
20035;DHT22;10178;48.034;9.800;2022-10-16T12:07:34;21.80;99.90
20035;DHT22;10178;48.034;9.800;2022-10-16T12:10:11;22.00;99.90
20035;DHT22;10178;48.034;9.800;2022-10-16T12:12:43;22.00;99.90
20035;DHT22;10178;48.034;9.800;2022-10-16T12:17:46;22.00;99.90
20035;DHT22;10178;48.034;9.800;2022-10-16T12:22:42;22.10;99.90
20035;DHT22;10178;48.034;9.800;2022-10-16T12:25:25;22.10;99.90
20035;DHT22;10178;48.034;9.800;2022-10-16T12:28:17;22.20;99.90
20035;DHT22;10178;48.034;9.800;2022-10-16T12:31:02;22.20;99.90
20035;DHT22;10178;48.034;9.800;2022-10-16T12:33:33;22.00;99.90
20035;DHT22;10178;48.034;9.800;2022-10-16T12:36:02;21.90;99.90
20035;DHT22;10178;48.034;9.800;2022-10-16T12:38:46;21.80;99.90
20035;DHT22;10178;48.034;9.800;2022-10-16T12:41:12;21.70;99.90
20035;DHT22;10178;48.034;9.800;2022-10-16T12:43:49;21.50;99.90
20035;DHT22;10178;48.034;9.800;2022-10-16T12:48:42;21.30;99.90
20035;DHT22;10178;48.034;9.800;2022-10-16T12:54:01;21.60;99.90
20035;DHT22;10178;48.034;9.800;2022-10-16T12:56:38;21.70;99.90
20035;DHT22;10178;48.034;9.800;2022-10-16T12:59:12;21.70;99.90
20035;DHT22;10178;48.034;9.800;2022-10-16T13:13:00;21.70;99.90
20035;DHT22;10178;48.034;9.800;2022-10-16T13:18:10;21.60;99.90
20035;DHT22;10178;48.034;9.800;2022-10-16T13:28:51;21.60;99.90
20035;DHT22;10178;48.034;9.800;2022-10-16T13:31:22;21.50;99.90
20035;DHT22;10178;48.034;9.800;2022-10-16T13:33:55;21.50;99.90
20035;DHT22;10178;48.034;9.800;2022-10-16T13:36:24;21.40;99.90
20035;DHT22;10178;48.034;9.800;2022-10-16T13:41:34;21.20;99.90
20035;DHT22;10178;48.034;9.800;2022-10-16T13:44:00;21.10;99.90
20035;DHT22;10178;48.034;9.800;2022-10-16T13:46:26;21.10;99.90
20035;DHT22;10178;48.034;9.800;2022-10-16T13:49:04;21.00;99.90
20035;DHT22;10178;48.034;9.800;2022-10-16T13:51:30;20.90;99.90
20035;DHT22;10178;48.034;9.800;2022-10-16T13:53:56;20.90;99.90
20035;DHT22;10178;48.034;9.800;2022-10-16T13:56:28;20.90;99.90
20035;DHT22;10178;48.034;9.800;2022-10-16T13:59:24;20.90;99.90
20035;DHT22;10178;48.034;9.800;2022-10-16T14:01:52;20.80;99.90
20035;DHT22;10178;48.034;9.800;2022-10-16T14:04:19;20.80;99.90
20035;DHT22;10178;48.034;9.800;2022-10-16T14:06:48;20.80;99.90
20035;DHT22;10178;48.034;9.800;2022-10-16T14:09:29;20.90;99.90
20035;DHT22;10178;48.034;9.800;2022-10-16T14:12:03;21.10;99.90
20035;DHT22;10178;48.034;9.800;2022-10-16T14:14:41;21.20;99.90
20035;DHT22;10178;48.034;9.800;2022-10-16T14:17:18;21.20;99.90
20035;DHT22;10178;48.034;9.800;2022-10-16T14:19:49;21.40;99.90
20035;DHT22;10178;48.034;9.800;2022-10-16T14:22:40;21.30;99.90
20035;DHT22;10178;48.034;9.800;2022-10-16T14:28:25;21.10;99.90
20035;DHT22;10178;48.034;9.800;2022-10-16T14:31:01;21.00;99.90
20035;DHT22;10178;48.034;9.800;2022-10-16T14:38:29;20.70;99.90
20035;DHT22;10178;48.034;9.800;2022-10-16T14:40:57;20.70;99.90
20035;DHT22;10178;48.034;9.800;2022-10-16T14:43:31;20.80;99.90
20035;DHT22;10178;48.034;9.800;2022-10-16T14:45:58;20.90;99.90
20035;DHT22;10178;48.034;9.800;2022-10-16T14:48:24;21.00;99.90
20035;DHT22;10178;48.034;9.800;2022-10-16T14:50:50;21.00;99.90
20035;DHT22;10178;48.034;9.800;2022-10-16T14:53:16;21.10;99.90
20035;DHT22;10178;48.034;9.800;2022-10-16T14:55:42;21.00;99.90
20035;DHT22;10178;48.034;9.800;2022-10-16T14:58:20;20.90;99.90
20035;DHT22;10178;48.034;9.800;2022-10-16T15:00:47;20.80;99.90
20035;DHT22;10178;48.034;9.800;2022-10-16T15:03:13;20.70;99.90
20035;DHT22;10178;48.034;9.800;2022-10-16T15:05:39;20.70;99.90
20035;DHT22;10178;48.034;9.800;2022-10-16T15:08:20;20.60;99.90
20035;DHT22;10178;48.034;9.800;2022-10-16T15:10:46;20.60;99.90
20035;DHT22;10178;48.034;9.800;2022-10-16T15:13:13;20.60;99.90
20035;DHT22;10178;48.034;9.800;2022-10-16T15:15:43;20.50;99.90
20035;DHT22;10178;48.034;9.800;2022-10-16T15:18:09;20.50;99.90
20035;DHT22;10178;48.034;9.800;2022-10-16T15:20:36;20.40;99.90
20035;DHT22;10178;48.034;9.800;2022-10-16T15:23:14;20.40;99.90
20035;DHT22;10178;48.034;9.800;2022-10-16T15:25:48;20.20;99.90
20035;DHT22;10178;48.034;9.800;2022-10-16T15:28:16;20.00;99.90
20035;DHT22;10178;48.034;9.800;2022-10-16T15:30:42;19.90;99.90
20035;DHT22;10178;48.034;9.800;2022-10-16T15:33:15;19.80;99.90
20035;DHT22;10178;48.034;9.800;2022-10-16T15:35:42;19.60;99.90
20035;DHT22;10178;48.034;9.800;2022-10-16T15:38:14;19.60;99.90
20035;DHT22;10178;48.034;9.800;2022-10-16T15:40:41;19.60;99.90
20035;DHT22;10178;48.034;9.800;2022-10-16T15:43:07;19.70;99.90
20035;DHT22;10178;48.034;9.800;2022-10-16T15:45:33;19.80;99.90
20035;DHT22;10178;48.034;9.800;2022-10-16T15:47:59;19.80;99.90
20035;DHT22;10178;48.034;9.800;2022-10-16T15:50:25;19.80;99.90
20035;DHT22;10178;48.034;9.800;2022-10-16T15:52:51;19.50;99.90
20035;DHT22;10178;48.034;9.800;2022-10-16T15:55:17;19.50;99.90
20035;DHT22;10178;48.034;9.800;2022-10-16T15:57:45;19.30;99.90
20035;DHT22;10178;48.034;9.800;2022-10-16T16:00:16;19.20;99.90
20035;DHT22;10178;48.034;9.800;2022-10-16T16:02:43;19.20;99.90
20035;DHT22;10178;48.034;9.800;2022-10-16T16:05:10;19.20;99.90
20035;DHT22;10178;48.034;9.800;2022-10-16T16:07:37;19.30;99.90
20035;DHT22;10178;48.034;9.800;2022-10-16T16:10:05;19.30;99.90
20035;DHT22;10178;48.034;9.800;2022-10-16T16:12:32;18.70;99.90
20035;DHT22;10178;48.034;9.800;2022-10-16T16:14:58;18.50;99.90
20035;DHT22;10178;48.034;9.800;2022-10-16T16:17:24;18.50;99.90
20035;DHT22;10178;48.034;9.800;2022-10-16T16:19:50;18.70;99.90
20035;DHT22;10178;48.034;9.800;2022-10-16T16:22:15;18.90;99.90
20035;DHT22;10178;48.034;9.800;2022-10-16T16:24:41;19.20;99.90
20035;DHT22;10178;48.034;9.800;2022-10-16T16:27:07;19.60;99.90
20035;DHT22;10178;48.034;9.800;2022-10-16T16:29:33;19.70;99.90
20035;DHT22;10178;48.034;9.800;2022-10-16T16:32:00;19.70;99.90
20035;DHT22;10178;48.034;9.800;2022-10-16T16:34:27;19.80;99.90
20035;DHT22;10178;48.034;9.800;2022-10-16T16:36:53;19.70;99.90
20035;DHT22;10178;48.034;9.800;2022-10-16T16:39:19;19.50;99.90
20035;DHT22;10178;48.034;9.800;2022-10-16T16:41:45;19.70;99.90
20035;DHT22;10178;48.034;9.800;2022-10-16T16:44:11;19.90;99.90
20035;DHT22;10178;48.034;9.800;2022-10-16T16:46:37;19.90;99.90
20035;DHT22;10178;48.034;9.800;2022-10-16T16:49:06;20.00;99.90
20035;DHT22;10178;48.034;9.800;2022-10-16T16:51:32;20.00;99.90
20035;DHT22;10178;48.034;9.800;2022-10-16T16:57:33;20.00;99.90
20035;DHT22;10178;48.034;9.800;2022-10-16T16:59:58;19.90;99.90
20035;DHT22;10178;48.034;9.800;2022-10-16T17:02:24;19.80;99.90
20035;DHT22;10178;48.034;9.800;2022-10-16T17:04:50;19.80;99.90
20035;DHT22;10178;48.034;9.800;2022-10-16T17:07:16;19.90;99.90
20035;DHT22;10178;48.034;9.800;2022-10-16T17:09:41;19.90;99.90
20035;DHT22;10178;48.034;9.800;2022-10-16T17:12:15;19.80;99.90
20035;DHT22;10178;48.034;9.800;2022-10-16T17:14:41;19.80;99.90
20035;DHT22;10178;48.034;9.800;2022-10-16T17:17:07;19.30;99.90
20035;DHT22;10178;48.034;9.800;2022-10-16T17:19:32;19.50;99.90
20035;DHT22;10178;48.034;9.800;2022-10-16T17:21:58;19.50;99.90
20035;DHT22;10178;48.034;9.800;2022-10-16T17:24:24;19.50;99.90
20035;DHT22;10178;48.034;9.800;2022-10-16T17:26:49;19.60;99.90
20035;DHT22;10178;48.034;9.800;2022-10-16T17:29:16;19.60;99.90
20035;DHT22;10178;48.034;9.800;2022-10-16T17:31:42;19.60;99.90
20035;DHT22;10178;48.034;9.800;2022-10-16T17:34:09;19.40;99.90
20035;DHT22;10178;48.034;9.800;2022-10-16T17:36:38;18.90;99.90
20035;DHT22;10178;48.034;9.800;2022-10-16T17:39:10;18.80;99.90
20035;DHT22;10178;48.034;9.800;2022-10-16T17:42:10;19.00;99.90
20035;DHT22;10178;48.034;9.800;2022-10-16T17:44:36;18.80;99.90
20035;DHT22;10178;48.034;9.800;2022-10-16T17:47:01;18.60;99.90
20035;DHT22;10178;48.034;9.800;2022-10-16T17:49:27;18.50;99.90
20035;DHT22;10178;48.034;9.800;2022-10-16T17:51:53;18.50;99.90
20035;DHT22;10178;48.034;9.800;2022-10-16T17:54:19;18.80;99.90
20035;DHT22;10178;48.034;9.800;2022-10-16T17:56:44;19.00;99.90
20035;DHT22;10178;48.034;9.800;2022-10-16T17:59:12;19.00;99.90
20035;DHT22;10178;48.034;9.800;2022-10-16T18:01:39;18.90;99.90
20035;DHT22;10178;48.034;9.800;2022-10-16T18:04:08;18.80;99.90
20035;DHT22;10178;48.034;9.800;2022-10-16T18:06:37;18.50;99.90
20035;DHT22;10178;48.034;9.800;2022-10-16T18:12:07;18.70;99.90
20035;DHT22;10178;48.034;9.800;2022-10-16T18:14:33;18.90;99.90
20035;DHT22;10178;48.034;9.800;2022-10-16T18:16:59;18.90;99.90
20035;DHT22;10178;48.034;9.800;2022-10-16T18:19:25;18.00;99.90
20035;DHT22;10178;48.034;9.800;2022-10-16T18:21:51;17.00;99.90